Time;durP1;ratioP1;P1;durP2;ratioP2;P2;SDS_P1;SDS_P2;PMS_P1;PMS_P2;Temp;Humidity;BMP_temperature;BMP_pressure;BME280_temperature;BME280_humidity;BME280_pressure;Samples;Min_cycle;Max_cycle;Signal;HPM_P1;HPM_P2
2022/03/12 00:00:00;;;;;;;19.65;11.95;;;;;;;9.96;37.99;101112.47;5257022;28;20427;-76
2022/03/12 00:02:32;;;;;;;20.65;11.48;;;;;;;9.94;37.95;101112.47;5256659;28;20041;-76
2022/03/12 00:05:07;;;;;;;24.42;12.77;;;;;;;9.95;38.00;101110.72;5256699;28;20121;-76
2022/03/12 00:07:42;;;;;;;19.02;12.30;;;;;;;9.93;38.29;101104.69;5256217;28;20033;-73
2022/03/12 00:10:13;;;;;;;18.30;12.02;;;;;;;9.94;38.18;101114.22;5256787;28;20741;-74
2022/03/12 00:12:44;;;;;;;17.37;11.43;;;;;;;9.92;38.27;101115.97;5256683;28;20025;-75
2022/03/12 00:15:16;;;;;;;17.27;12.73;;;;;;;9.93;38.35;101118.56;5256693;28;20498;-75
2022/03/12 00:17:48;;;;;;;15.97;10.97;;;;;;;9.93;38.80;101115.94;5256178;28;20041;-75
2022/03/12 00:20:22;;;;;;;15.35;11.60;;;;;;;9.91;38.82;101115.09;5256064;28;20036;-75
2022/03/12 00:22:54;;;;;;;20.35;11.88;;;;;;;9.89;39.02;101116.84;5256584;28;20380;-75
2022/03/12 00:25:26;;;;;;;16.33;11.77;;;;;;;9.92;38.75;101124.66;5255983;28;20024;-73
2022/03/12 00:27:57;;;;;;;15.83;11.67;;;;;;;9.89;38.93;101122.06;5256366;28;20037;-74
2022/03/12 00:30:29;;;;;;;21.73;12.47;;;;;;;9.91;38.92;101138.53;5256354;28;20282;-76
2022/03/12 00:33:01;;;;;;;19.10;12.43;;;;;;;9.91;39.07;101135.06;5256099;28;20036;-77
2022/03/12 00:35:33;;;;;;;21.20;12.73;;;;;;;9.94;39.03;101129.84;5255622;28;20356;-76
2022/03/12 00:38:04;;;;;;;17.87;12.27;;;;;;;9.95;38.60;101142.00;5256286;28;20028;-75
2022/03/12 00:40:36;;;;;;;18.27;11.97;;;;;;;9.92;39.02;101137.69;5256235;28;20028;-74
2022/03/12 00:43:09;;;;;;;16.50;12.63;;;;;;;9.91;39.26;101135.06;5256087;28;20028;-76
2022/03/12 00:45:41;;;;;;;18.13;11.63;;;;;;;9.94;40.12;101148.94;5255580;28;20043;-74
2022/03/12 00:48:13;;;;;;;;;;;;;;;9.97;40.31;101145.47;5256360;28;20059;-76
2022/03/12 00:50:45;;;;;;;18.95;12.25;;;;;;;9.89;41.38;101144.66;5254072;28;20027;-74
2022/03/12 00:53:16;;;;;;;18.93;11.73;;;;;;;9.89;41.24;101139.44;5255749;28;20392;-76
2022/03/12 00:55:48;;;;;;;21.53;12.03;;;;;;;9.87;42.06;101139.44;5255618;28;20039;-75
2022/03/12 00:58:20;;;;;;;20.93;12.00;;;;;;;9.88;42.28;101145.50;5255621;28;20078;-75
2022/03/12 01:00:51;;;;;;;16.93;11.77;;;;;;;9.88;42.43;101145.50;5255607;28;20029;-74
2022/03/12 01:03:22;;;;;;;18.00;11.77;;;;;;;9.88;42.47;101145.50;5255746;28;20391;-75
2022/03/12 01:05:58;;;;;;;18.50;11.70;;;;;;;9.89;42.20;101145.50;5255302;28;20060;-74
2022/03/12 01:08:31;;;;;;;17.88;12.52;;;;;;;9.89;42.58;101149.84;5255171;28;20036;-76
2022/03/12 01:11:07;;;;;;;17.27;13.15;;;;;;;9.92;42.37;101142.00;5255329;28;20025;-74
2022/03/12 01:13:39;;;;;;;20.00;12.50;;;;;;;9.93;42.45;101148.94;5255548;28;20029;-74
2022/03/12 01:16:10;;;;;;;16.80;12.07;;;;;;;9.90;42.76;101148.97;5255457;28;20036;-74
2022/03/12 01:18:41;;;;;;;21.07;13.50;;;;;;;9.94;42.68;101154.16;5255193;28;20052;-75
2022/03/12 01:21:17;;;;;;;21.17;12.17;;;;;;;9.89;43.39;101153.31;5254856;28;20028;-74
2022/03/12 01:23:49;;;;;;;17.92;12.30;;;;;;;9.86;44.20;101151.56;5255422;28;20092;-75
2022/03/12 01:26:22;;;;;;;19.42;11.77;;;;;;;9.84;45.14;101165.50;5255281;28;20025;-76
2022/03/12 01:28:54;;;;;;;18.13;12.30;;;;;;;9.68;46.05;101164.66;5255193;28;20051;-75
2022/03/12 01:31:25;;;;;;;21.53;13.17;;;;;;;9.61;47.22;101168.16;5255320;28;20128;-75
2022/03/12 01:33:57;;;;;;;20.80;13.00;;;;;;;9.46;48.06;101172.50;5255378;28;20083;-73
2022/03/12 01:36:29;;;;;;;19.38;12.77;;;;;;;9.35;49.36;101176.88;5254885;28;20033;-75
2022/03/12 01:39:01;;;;;;;19.02;12.82;;;;;;;9.30;48.49;101176.00;5255166;28;20025;-75
2022/03/12 01:41:39;;;;;;;18.90;12.60;;;;;;;9.29;49.06;101177.75;5255046;28;20029;-76
2022/03/12 01:44:15;;;;;;;18.80;13.07;;;;;;;9.26;49.84;101172.56;5254983;28;20271;-75
2022/03/12 01:46:48;;;;;;;19.63;12.57;;;;;;;9.27;49.55;101179.50;5255267;28;20037;-74
2022/03/12 01:49:23;;;;;;;20.50;13.05;;;;;;;9.24;51.38;101178.63;5255157;28;20029;-76
2022/03/12 01:51:55;;;;;;;15.85;12.05;;;;;;;9.16;51.61;101176.06;5254655;28;20597;-73
2022/03/12 01:54:29;;;;;;;19.85;13.45;;;;;;;9.05;52.82;101173.44;5255023;28;20032;-73
2022/03/12 01:57:01;;;;;;;19.15;14.35;;;;;;;8.97;53.50;101175.19;5254608;28;20056;-74
2022/03/12 01:59:34;;;;;;;19.73;13.43;;;;;;;8.93;54.29;101170.84;5254853;28;20083;-75
2022/03/12 02:02:09;;;;;;;17.30;13.25;;;;;;;8.92;53.83;101167.38;5255058;28;20023;-74
2022/03/12 02:04:41;;;;;;;21.27;14.23;;;;;;;8.97;54.02;101167.38;5254699;28;20849;-74
2022/03/12 02:07:14;;;;;;;19.55;13.02;;;;;;;8.97;53.00;101167.38;5254632;28;20029;-75
2022/03/12 02:09:46;;;;;;;16.35;13.05;;;;;;;9.02;53.25;101164.78;5254766;28;20088;-73
2022/03/12 02:12:18;;;;;;;20.35;12.93;;;;;;;9.08;51.94;101168.25;5255049;28;20480;-75
2022/03/12 02:14:50;;;;;;;22.00;13.77;;;;;;;9.06;52.54;101159.56;5254775;28;20032;-74
2022/03/12 02:17:21;;;;;;;19.03;13.27;;;;;;;9.09;52.31;101171.69;5254583;28;20025;-73
2022/03/12 02:19:52;;;;;;;16.50;12.33;;;;;;;9.14;52.62;101169.97;5256461;28;20456;-74
2022/03/12 02:22:24;;;;;;;19.47;13.23;;;;;;;9.13;52.48;101171.69;5258146;28;20033;-74
2022/03/12 02:24:55;;;;;;;17.07;12.40;;;;;;;9.13;52.70;101170.84;5258686;28;20086;-75
2022/03/12 02:27:29;;;;;;;19.07;12.53;;;;;;;9.18;52.68;101171.69;5258483;28;20472;-73
2022/03/12 02:30:02;;;;;;;18.45;13.40;;;;;;;9.23;52.70;101172.56;5258556;28;20031;-74
2022/03/12 02:32:33;;;;;;;;;;;;;;;9.24;51.96;101165.63;5259090;28;20024;-74
2022/03/12 02:35:10;;;;;;;19.23;12.30;;;;;;;9.24;53.14;101174.31;5258794;28;19924;-74
2022/03/12 02:37:47;;;;;;;19.08;12.45;;;;;;;9.24;53.36;101178.63;5258855;28;20049;-74
2022/03/12 02:40:19;;;;;;;16.25;12.32;;;;;;;9.25;52.68;101173.41;5258224;28;20036;-73
2022/03/12 02:42:54;;;;;;;16.23;12.60;;;;;;;9.26;52.79;101175.16;5258248;28;20102;-73
2022/03/12 02:45:29;;;;;;;17.08;12.52;;;;;;;9.29;52.54;101176.91;5258413;28;20028;-73
2022/03/12 02:48:00;;;;;;;18.17;13.45;;;;;;;9.30;52.98;101194.22;5258016;28;20068;-74
2022/03/12 02:50:32;;;;;;;19.13;11.63;;;;;;;9.28;52.87;101190.78;5258034;28;20067;-75
2022/03/12 02:53:05;;;;;;;17.60;12.47;;;;;;;9.28;52.39;101195.97;5258086;28;20035;-74
2022/03/12 02:55:41;;;;;;;19.45;12.15;;;;;;;9.26;52.53;101200.31;5257891;28;20032;-74
2022/03/12 02:58:14;;;;;;;18.30;12.73;;;;;;;9.24;52.59;101191.63;5258073;28;20051;-74
2022/03/12 03:00:47;;;;;;;20.67;12.88;;;;;;;9.22;52.67;101201.19;5257957;28;20027;-75
2022/03/12 03:03:19;;;;;;;17.63;12.85;;;;;;;9.17;52.70;101202.91;5257829;28;20112;-75
2022/03/12 03:05:51;;;;;;;18.00;12.87;;;;;;;9.12;53.71;101205.50;5257997;28;20532;-75
2022/03/12 03:08:23;;;;;;;;;;;;;;;9.11;52.76;101198.56;5258162;28;20445;-74
2022/03/12 03:10:59;;;;;;;13.93;11.05;;;;;;;8.91;54.29;101199.44;5257869;28;20087;-75
2022/03/12 03:13:44;;;;;;;17.58;12.75;;;;;;;8.79;54.41;101188.16;5257971;28;20376;-74
2022/03/12 03:16:20;;;;;;;18.42;12.23;;;;;;;8.69;55.66;101202.88;5257674;28;20052;-73
2022/03/12 03:18:53;;;;;;;16.65;12.32;;;;;;;8.58;56.42;101206.34;5257511;28;20484;-75
2022/03/12 03:21:26;;;;;;;19.73;11.75;;;;;;;8.56;57.14;101213.25;5257971;28;20059;-76
2022/03/12 03:24:00;;;;;;;;;;;;;;;8.47;56.39;101208.03;5258333;28;20021;-74
2022/03/12 03:26:40;;;;;;;15.50;11.50;;;;;;;8.42;58.38;101208.84;5257313;28;19917;-74
2022/03/12 03:29:13;;;;;;;16.00;11.88;;;;;;;8.36;59.54;101207.97;5257255;28;20036;-75
2022/03/12 03:31:45;;;;;;;;;;;;;;;8.31;56.93;101211.41;5257945;28;20025;-74
2022/03/12 03:34:17;;;;;;;14.30;11.30;;;;;;;8.23;60.46;101211.38;5257528;28;20391;-74
2022/03/12 03:36:50;;;;;;;14.40;11.70;;;;;;;8.20;60.99;101216.56;5272847;28;20543;-75
2022/03/12 03:39:21;;;;;;;15.45;12.45;;;;;;;8.18;61.33;101215.69;5257356;28;20029;-73
2022/03/12 03:41:54;;;;;;;17.40;11.27;;;;;;;8.14;61.40;101220.00;5256841;28;20394;-74
2022/03/12 03:44:29;;;;;;;16.00;12.18;;;;;;;8.08;61.81;101219.09;5257345;28;20391;-74
2022/03/12 03:47:01;;;;;;;17.23;11.75;;;;;;;8.02;61.91;101219.97;5257043;28;20106;-73
2022/03/12 03:49:32;;;;;;;15.43;11.87;;;;;;;7.97;62.23;101219.94;5257277;28;20033;-74
2022/03/12 03:52:04;;;;;;;13.97;11.23;;;;;;;7.92;62.16;101220.75;5256845;28;20029;-73
2022/03/12 03:54:36;;;;;;;15.02;12.43;;;;;;;7.88;62.54;101221.63;5256890;28;20388;-74
2022/03/12 03:57:10;;;;;;;19.27;11.57;;;;;;;7.83;63.94;101225.03;5256434;28;20032;-72
2022/03/12 03:59:41;;;;;;;15.32;10.52;;;;;;;7.80;64.75;101238.00;5256588;28;20290;-75
2022/03/12 04:02:12;;;;;;;14.33;10.30;;;;;;;7.81;66.16;101233.69;5256814;28;20025;-75
2022/03/12 04:04:45;;;;;;;14.00;10.57;;;;;;;7.75;66.64;101231.91;5256796;28;20099;-74
2022/03/12 04:07:16;;;;;;;12.95;11.27;;;;;;;7.78;68.90;101236.28;5255141;28;20036;-74
2022/03/12 04:09:48;;;;;;;14.27;9.80;;;;;;;7.75;69.05;101238.84;5256588;28;20083;-74
2022/03/12 04:12:19;;;;;;;11.18;8.77;;;;;;;7.68;69.41;101240.53;5254976;28;20027;-74
2022/03/12 04:14:51;;;;;;;13.17;9.33;;;;;;;7.66;70.67;101240.53;5256547;28;20021;-75
2022/03/12 04:17:23;;;;;;;11.50;8.77;;;;;;;7.64;71.48;101244.81;5256635;28;20029;-74
2022/03/12 04:19:54;;;;;;;10.23;8.27;;;;;;;7.64;72.04;101251.75;5255904;28;20049;-74
2022/03/12 04:22:26;;;;;;;10.77;8.20;;;;;;;7.63;72.44;101255.19;5255984;28;20283;-74
2022/03/12 04:24:57;;;;;;;9.73;7.93;;;;;;;7.59;73.15;101249.09;5256291;28;20523;-75
2022/03/12 04:27:29;;;;;;;10.57;7.60;;;;;;;7.54;73.65;101248.22;5255724;28;20047;-75
2022/03/12 04:30:00;;;;;;;9.50;7.77;;;;;;;7.55;74.65;101249.06;5256175;28;20051;-75
2022/03/12 04:32:31;;;;;;;8.63;7.07;;;;;;;7.54;75.13;101249.94;5256027;28;20124;-75
2022/03/12 04:35:05;;;;;;;9.97;7.40;;;;;;;7.56;75.47;101250.81;5256176;28;20037;-75
2022/03/12 04:37:37;;;;;;;11.77;8.32;;;;;;;7.55;75.92;101249.97;5256148;28;20025;-75
2022/03/12 04:40:12;;;;;;;10.32;7.40;;;;;;;7.60;76.80;101248.25;5256466;28;20025;-76
2022/03/12 04:42:45;;;;;;;10.23;6.60;;;;;;;7.61;76.80;101259.50;5255006;28;20535;-76
2022/03/12 04:45:20;;;;;;;11.75;7.70;;;;;;;7.61;76.97;101252.56;5255684;28;20124;-75
2022/03/12 04:47:53;;;;;;;10.57;7.35;;;;;;;7.61;77.19;101249.13;5255688;28;20110;-75
2022/03/12 04:50:25;;;;;;;10.32;7.32;;;;;;;7.57;77.32;101248.25;5255931;28;20441;-74
2022/03/12 04:52:59;;;;;;;12.37;7.77;;;;;;;7.55;77.60;101251.66;5255682;28;20036;-75
2022/03/12 04:55:31;;;;;;;11.10;8.07;;;;;;;7.51;77.91;101258.56;5255591;28;20033;-76
2022/03/12 04:58:07;;;;;;;10.50;8.03;;;;;;;7.52;78.22;101262.91;5255492;28;20048;-75
2022/03/12 05:00:43;;;;;;;11.55;7.47;;;;;;;7.47;78.25;101261.97;5255541;28;20029;-75
2022/03/12 05:03:25;;;;;;;10.43;8.30;;;;;;;7.51;78.53;101270.69;5255572;28;20040;-75
2022/03/12 05:05:59;;;;;;;9.60;7.22;;;;;;;7.42;79.06;101268.88;5255618;28;20103;-76
2022/03/12 05:08:35;;;;;;;9.40;8.02;;;;;;;7.41;79.40;101270.59;5255727;28;20094;-76
2022/03/12 05:11:08;;;;;;;9.35;7.47;;;;;;;7.38;79.48;101269.72;5255566;28;20029;-76
2022/03/12 05:13:40;;;;;;;9.75;7.47;;;;;;;7.34;80.29;101263.66;5255109;28;20033;-76
2022/03/12 05:16:15;;;;;;;9.97;7.67;;;;;;;7.29;80.59;101267.91;5255332;28;20476;-75
2022/03/12 05:18:46;;;;;;;12.88;7.97;;;;;;;7.23;80.33;101273.91;5254818;28;20299;-76
2022/03/12 05:21:18;;;;;;;12.27;7.67;;;;;;;7.19;80.34;101276.47;5255392;28;20039;-75
2022/03/12 05:23:50;;;;;;;10.33;7.17;;;;;;;7.12;80.39;101289.38;5255588;28;20024;-76
2022/03/12 05:26:22;;;;;;;16.43;9.03;;;;;;;7.08;80.91;101282.44;5254918;28;20040;-76
2022/03/12 05:28:53;;;;;;;12.00;8.23;;;;;;;7.06;80.91;101289.31;5253689;28;20033;-76
2022/03/12 05:31:24;;;;;;;11.57;8.90;;;;;;;7.02;80.67;101284.97;5255166;28;20032;-77
2022/03/12 05:33:57;;;;;;;12.93;8.87;;;;;;;6.94;80.72;101286.59;5255558;28;20064;-76
2022/03/12 05:36:28;;;;;;;11.90;9.23;;;;;;;6.90;81.12;101298.63;5255177;28;20404;-76
2022/03/12 05:39:00;;;;;;;10.10;8.00;;;;;;;6.88;81.60;101300.34;5255212;28;20028;-76
2022/03/12 05:41:38;;;;;;;12.23;9.50;;;;;;;6.83;81.88;101307.22;5255008;28;20029;-77
2022/03/12 05:44:14;;;;;;;11.27;8.50;;;;;;;6.81;82.06;101302.84;5255124;28;20025;-77
2022/03/12 05:46:45;;;;;;;11.07;8.48;;;;;;;6.75;82.08;101311.44;5255148;28;20491;-77
2022/03/12 05:49:18;;;;;;;8.63;7.53;;;;;;;6.72;82.65;101314.84;5255203;28;20029;-75
2022/03/12 05:51:50;;;;;;;11.57;8.18;;;;;;;6.71;83.18;101313.13;5255030;28;20043;-76
2022/03/12 05:54:23;;;;;;;13.13;8.73;;;;;;;6.72;83.34;101314.00;5256438;28;20025;-76
2022/03/12 05:56:55;;;;;;;13.52;8.95;;;;;;;6.70;83.46;101321.75;5259446;28;20025;-76
2022/03/12 05:59:26;;;;;;;10.95;8.77;;;;;;;6.66;83.32;101317.38;5258737;28;20535;-77
2022/03/12 06:01:57;;;;;;;10.33;8.63;;;;;;;6.66;84.08;101321.69;5258737;28;20100;-78
2022/03/12 06:04:29;;;;;;;13.20;8.83;;;;;;;6.68;84.01;101317.38;5258446;28;20051;-76
2022/03/12 06:07:00;;;;;;;12.53;8.40;;;;;;;6.65;84.00;101310.47;5258241;28;20116;-76
2022/03/12 06:09:31;;;;;;;12.60;8.50;;;;;;;6.65;84.46;101317.34;5258980;28;20025;-77
2022/03/12 06:12:05;;;;;;;13.63;9.00;;;;;;;6.68;85.28;101317.38;5258824;28;20067;-76
2022/03/12 06:14:38;;;;;;;11.65;8.10;;;;;;;6.72;85.26;101319.19;5258317;28;20107;-76
2022/03/12 06:17:13;;;;;;;11.80;8.05;;;;;;;6.76;85.33;101323.53;5258691;28;20443;-78
2022/03/12 06:19:44;;;;;;;11.35;8.70;;;;;;;6.75;84.95;101322.66;5258323;28;20045;-77
2022/03/12 06:22:16;;;;;;;10.80;7.50;;;;;;;6.75;85.01;101322.66;5258323;28;20036;-76
2022/03/12 06:24:49;;;;;;;9.83;8.40;;;;;;;6.84;85.40;101336.56;5258321;28;20476;-75
2022/03/12 06:27:22;;;;;;;11.40;8.68;;;;;;;6.88;85.58;101331.44;5258404;28;20033;-76
2022/03/12 06:29:53;;;;;;;10.10;7.90;;;;;;;6.94;85.03;101339.31;5257923;28;20032;-75
2022/03/12 06:32:24;;;;;;;10.23;8.30;;;;;;;6.99;85.00;101333.28;5256784;28;20101;-76
2022/03/12 06:34:56;;;;;;;10.97;8.43;;;;;;;7.07;85.17;101335.13;5258297;28;20036;-76
2022/03/12 06:37:27;;;;;;;10.60;7.80;;;;;;;7.17;84.78;101332.63;5258409;28;20025;-74
2022/03/12 06:40:00;;;;;;;10.37;8.10;;;;;;;7.20;84.72;101333.53;5257794;28;20029;-75
2022/03/12 06:42:34;;;;;;;9.50;7.95;;;;;;;7.24;84.90;101337.00;5257465;28;20017;-73
2022/03/12 06:45:08;;;;;;;9.10;7.80;;;;;;;7.28;84.92;101342.25;5257597;28;20021;-75
2022/03/12 06:47:40;;;;;;;9.93;7.47;;;;;;;7.36;84.72;101344.03;5257515;28;20033;-75
2022/03/12 06:50:15;;;;;;;8.87;7.10;;;;;;;7.40;84.66;101351.00;5256400;28;20033;-74
2022/03/12 06:52:48;;;;;;;10.07;8.13;;;;;;;7.42;84.37;101350.16;5258020;28;20033;-74
2022/03/12 06:55:23;;;;;;;10.80;7.88;;;;;;;7.50;84.09;101355.41;5257697;28;20028;-74
2022/03/12 06:57:55;;;;;;;9.68;8.38;;;;;;;7.53;83.95;101352.84;5257964;28;20037;-75
2022/03/12 07:00:29;;;;;;;;;;;;;;;7.59;83.00;101352.03;5258342;28;20418;-75
2022/03/12 07:03:01;;;;;;;9.50;7.13;;;;;;;7.63;83.33;101356.38;5257535;28;19912;-75
2022/03/12 07:05:32;;;;;;;11.50;8.13;;;;;;;7.70;83.60;101360.78;5257108;28;20029;-74
2022/03/12 07:08:04;;;;;;;9.80;7.60;;;;;;;7.75;83.13;101368.59;5257369;28;20032;-78
2022/03/12 07:10:36;;;;;;;10.20;7.57;;;;;;;7.78;82.95;101371.22;5257904;28;20043;-77
2022/03/12 07:13:07;;;;;;;11.10;7.93;;;;;;;7.83;83.06;101364.34;5256118;28;20489;-74
2022/03/12 07:15:39;;;;;;;9.33;7.87;;;;;;;7.87;82.81;101362.63;5257366;28;20057;-78
2022/03/12 07:18:10;;;;;;;11.07;7.67;;;;;;;7.90;82.67;101368.72;5257012;28;20024;-76
2022/03/12 07:20:42;;;;;;;9.13;7.80;;;;;;;7.92;82.74;101377.41;5257629;28;20516;-79
2022/03/12 07:23:13;;;;;;;9.27;7.17;;;;;;;7.98;82.48;101376.56;5256388;28;20037;-77
2022/03/12 07:25:45;;;;;;;10.30;7.80;;;;;;;8.03;82.22;101383.53;5257464;28;20884;-78
2022/03/12 07:28:18;;;;;;;11.83;7.53;;;;;;;8.10;81.96;101388.75;5257328;28;20120;-75
2022/03/12 07:30:50;;;;;;;9.07;7.30;;;;;;;8.18;81.75;101387.09;5252931;28;20174;-76
2022/03/12 07:33:21;;;;;;;8.77;7.87;;;;;;;8.22;81.69;101391.44;5257162;28;20442;-76
2022/03/12 07:35:53;;;;;;;9.00;6.97;;;;;;;8.30;81.10;101394.97;5256295;28;20338;-78
2022/03/12 07:38:24;;;;;;;9.53;7.77;;;;;;;8.38;80.74;101405.41;5256875;28;20039;-77
2022/03/12 07:40:56;;;;;;;10.07;7.20;;;;;;;8.48;80.34;101401.16;5256866;28;20140;-76
2022/03/12 07:43:27;;;;;;;9.93;7.50;;;;;;;8.57;79.67;101403.81;5256434;28;20033;-76
2022/03/12 07:45:58;;;;;;;10.23;7.53;;;;;;;8.66;79.74;101408.19;5256266;28;20468;-76
2022/03/12 07:48:30;;;;;;;10.10;7.93;;;;;;;8.75;79.50;101416.91;5256807;28;20368;-76
2022/03/12 07:51:01;;;;;;;9.97;7.87;;;;;;;8.84;78.66;101418.69;5254817;28;20039;-76
2022/03/12 07:53:33;;;;;;;10.07;7.37;;;;;;;8.96;78.39;101414.41;5256487;28;20036;-75
2022/03/12 07:56:06;;;;;;;9.23;7.27;;;;;;;9.03;77.93;101421.34;5256683;28;20141;-76
2022/03/12 07:58:37;;;;;;;8.50;7.20;;;;;;;9.07;77.68;101416.16;5255885;28;20035;-76
2022/03/12 08:01:08;;;;;;;8.43;7.57;;;;;;;9.15;77.42;101423.13;5256787;28;20476;-75
2022/03/12 08:03:40;;;;;;;9.83;7.50;;;;;;;9.28;77.33;101435.31;5256464;28;20025;-76
2022/03/12 08:06:16;;;;;;;9.30;6.97;;;;;;;9.33;76.76;101436.19;5255740;28;20882;-74
2022/03/12 08:08:48;;;;;;;9.45;7.32;;;;;;;9.35;76.48;101436.19;5256207;28;20029;-76
2022/03/12 08:11:26;;;;;;;10.77;8.17;;;;;;;9.36;76.39;101433.59;5256612;28;20036;-76
2022/03/12 08:14:01;;;;;;;8.98;7.88;;;;;;;9.38;76.05;101436.22;5256506;28;20460;-76
2022/03/12 08:16:34;;;;;;;10.35;7.57;;;;;;;9.43;75.93;101445.75;5255681;28;20605;-77
2022/03/12 08:19:07;;;;;;;10.63;7.88;;;;;;;9.52;75.66;101441.47;5257104;28;20105;-76
2022/03/12 08:21:39;;;;;;;8.73;7.72;;;;;;;9.60;75.42;101439.72;5255887;28;20036;-77
2022/03/12 08:24:15;;;;;;;10.35;7.07;;;;;;;9.78;75.18;101437.13;5256522;28;20060;-76
2022/03/12 08:26:48;;;;;;;11.10;8.15;;;;;;;9.90;74.15;101449.31;5260973;28;20090;-76
2022/03/12 08:29:19;;;;;;;12.25;7.72;;;;;;;10.01;73.63;101451.91;5259716;28;20037;-75
2022/03/12 08:31:51;;;;;;;11.87;7.47;;;;;;;10.09;73.20;101455.38;5260185;28;20035;-77
2022/03/12 08:34:22;;;;;;;10.43;6.80;;;;;;;10.15;72.92;101451.91;5259599;28;20021;-75
2022/03/12 08:36:54;;;;;;;10.83;7.40;;;;;;;10.32;72.70;101462.31;5262004;28;20109;-76
2022/03/12 08:39:25;;;;;;;11.30;6.77;;;;;;;10.48;72.06;101460.59;5261989;28;20852;-78
2022/03/12 08:41:57;;;;;;;8.93;6.70;;;;;;;10.54;71.10;101471.00;5257398;28;20104;-76
2022/03/12 08:44:28;;;;;;;8.80;6.50;;;;;;;10.65;71.10;101473.63;5260809;28;20021;-78
2022/03/12 08:47:00;;;;;;;11.20;7.37;;;;;;;10.92;70.07;101470.94;5261413;28;20076;-75
2022/03/12 08:49:31;;;;;;;9.47;5.93;;;;;;;11.20;68.94;101476.03;5261939;28;20029;-77
2022/03/12 08:52:03;;;;;;;9.50;7.23;;;;;;;11.49;68.23;101475.03;5263324;28;20025;-77
2022/03/12 08:54:35;;;;;;;11.10;6.67;;;;;;;11.73;67.17;101475.75;5262042;28;20466;-79
2022/03/12 08:57:07;;;;;;;12.02;5.82;;;;;;;11.79;65.63;101483.56;5260487;28;20506;-78
2022/03/12 08:59:39;;;;;;;7.23;4.93;;;;;;;11.61;65.40;101485.41;5256082;28;20100;-79
2022/03/12 09:02:10;;;;;;;10.50;4.53;;;;;;;11.62;65.67;101484.53;5256290;28;20039;-77
2022/03/12 09:04:45;;;;;;;10.97;5.10;;;;;;;11.65;64.98;101476.66;5260575;28;20111;-79
2022/03/12 09:07:18;;;;;;;10.45;5.43;;;;;;;11.67;64.58;101481.88;5255287;28;20040;-79
2022/03/12 09:09:54;;;;;;;10.45;4.65;;;;;;;11.87;64.05;101484.38;5255198;28;20029;-78
2022/03/12 09:12:25;;;;;;;8.98;4.80;;;;;;;11.92;63.82;101485.25;5255004;28;20358;-76
2022/03/12 09:14:57;;;;;;;8.57;4.43;;;;;;;11.96;62.84;101481.75;5254901;28;20052;-79
2022/03/12 09:17:28;;;;;;;8.67;4.73;;;;;;;12.16;62.52;101483.31;5253068;28;20517;-78
2022/03/12 09:20:00;;;;;;;7.40;4.40;;;;;;;12.08;62.35;101486.00;5234032;28;20045;-77
2022/03/12 09:22:31;;;;;;;7.07;3.90;;;;;;;12.03;62.29;101482.56;5235090;28;20085;-77
2022/03/12 09:25:04;;;;;;;10.70;4.93;;;;;;;12.07;61.23;101491.22;5234654;28;20609;-75
2022/03/12 09:27:36;;;;;;;7.07;4.18;;;;;;;12.09;61.30;101482.50;5235086;28;20489;-77
2022/03/12 09:30:08;;;;;;;9.90;4.53;;;;;;;12.13;60.55;101485.97;5234873;28;20033;-77
2022/03/12 09:32:40;;;;;;;8.63;4.07;;;;;;;12.31;59.57;101492.78;5235336;28;20880;-80
2022/03/12 09:35:14;;;;;;;11.57;4.47;;;;;;;12.34;59.57;101487.53;5235111;28;20021;-78
2022/03/12 09:37:45;;;;;;;12.13;4.22;;;;;;;12.35;58.62;101497.13;5234782;28;20034;-79
2022/03/12 09:40:17;;;;;;;10.95;5.18;;;;;;;12.67;58.29;101496.81;5234669;28;20025;-77
2022/03/12 09:42:49;;;;;;;9.87;3.53;;;;;;;13.09;56.85;101489.38;5234430;28;20503;-77
2022/03/12 09:45:22;;;;;;;8.47;3.60;;;;;;;13.29;55.50;101491.72;5234410;28;20045;-79
2022/03/12 09:47:54;;;;;;;8.55;3.38;;;;;;;13.17;54.45;101486.66;5234220;28;20116;-77
2022/03/12 09:50:25;;;;;;;9.77;3.13;;;;;;;13.04;54.38;101483.31;5234349;28;20567;-78
2022/03/12 09:52:57;;;;;;;9.53;2.87;;;;;;;12.84;54.31;101480.06;5234748;28;20385;-76
2022/03/12 09:55:28;;;;;;;10.45;3.85;;;;;;;12.47;55.87;101498.75;5235663;28;20056;-77
2022/03/12 09:58:00;;;;;;;9.63;3.47;;;;;;;12.35;55.90;101490.13;5236850;28;20038;-78
2022/03/12 10:00:32;;;;;;;6.87;3.10;;;;;;;12.35;56.14;101495.34;5236342;28;20033;-77
2022/03/12 10:03:05;;;;;;;8.30;3.30;;;;;;;12.46;55.84;101502.22;5236158;28;20033;-78
2022/03/12 10:05:36;;;;;;;8.95;3.33;;;;;;;12.55;55.19;101497.78;5234650;28;20038;-75
2022/03/12 10:08:08;;;;;;;9.47;4.13;;;;;;;12.64;55.33;101499.44;5233830;28;20045;-77
2022/03/12 10:10:39;;;;;;;10.80;3.43;;;;;;;12.89;54.99;101504.41;5234343;28;20092;-78
2022/03/12 10:13:11;;;;;;;6.50;3.13;;;;;;;13.29;53.95;101506.56;5234586;28;20028;-79
2022/03/12 10:15:45;;;;;;;7.90;3.00;;;;;;;13.18;53.73;101504.06;5234795;28;20631;-79
2022/03/12 10:18:17;;;;;;;7.55;3.08;;;;;;;13.34;53.45;101501.31;5234080;28;20166;-77
2022/03/12 10:20:49;;;;;;;6.38;3.13;;;;;;;13.50;52.72;101505.47;5235157;28;20088;-77
2022/03/12 10:23:21;;;;;;;5.93;3.10;;;;;;;13.67;52.54;101513.09;5237087;28;20033;-77
2022/03/12 10:25:52;;;;;;;6.83;3.80;;;;;;;13.47;52.67;101513.34;5255315;28;20032;-80
2022/03/12 10:28:24;;;;;;;6.23;3.30;;;;;;;13.65;51.73;101515.75;5254736;28;20029;-79
2022/03/12 10:30:56;;;;;;;7.40;3.87;;;;;;;13.65;52.02;101494.78;5254551;28;20021;-78
2022/03/12 10:33:27;;;;;;;7.95;3.92;;;;;;;14.00;50.84;101495.13;5254395;28;20017;-78
2022/03/12 10:36:12;;;;;;;8.50;3.20;;;;;;;14.45;49.47;101503.13;5254542;28;20586;-76
2022/03/12 10:38:50;;;;;;;8.57;3.25;;;;;;;14.10;49.52;101498.47;5255566;28;20041;-76
2022/03/12 10:41:28;;;;;;;8.25;3.35;;;;;;;14.30;50.04;101509.50;5251411;28;20571;-75
2022/03/12 10:43:59;;;;;;;8.48;3.38;;;;;;;14.48;48.95;101521.44;5257371;28;20029;-78
2022/03/12 10:46:32;;;;;;;7.10;2.60;;;;;;;15.11;47.23;101512.41;5257631;28;20481;-77
2022/03/12 10:49:03;;;;;;;;;;;;;;;15.77;46.48;101511.94;5257517;28;20048;-78
2022/03/12 10:51:38;;;;;;;9.10;2.85;;;;;;;15.86;45.30;101509.97;5257326;28;19913;-78
2022/03/12 10:54:15;;;;;;;14.48;3.65;;;;;;;16.42;44.37;101505.97;5237169;28;20064;-76
2022/03/12 10:56:49;;;;;;;10.32;3.45;;;;;;;17.01;42.57;101501.81;5237962;28;20022;-77
2022/03/12 10:59:26;;;;;;;6.47;3.17;;;;;;;17.26;41.55;101507.25;5241950;28;20506;-78
2022/03/12 11:02:02;;;;;;;5.65;2.80;;;;;;;17.16;41.39;101511.91;5256866;28;20028;-79
2022/03/12 11:04:36;;;;;;;7.90;2.80;;;;;;;16.90;41.61;101505.59;5256973;28;20581;-77
2022/03/12 11:07:26;;;;;;;6.68;3.17;;;;;;;17.69;40.97;101503.31;5257025;28;20494;-80
2022/03/12 11:09:58;;;;;;;6.55;3.08;;;;;;;17.49;40.48;101502.16;5256954;28;20036;-78
2022/03/12 11:12:38;;;;;;;9.27;2.63;;;;;;;17.73;39.46;101512.88;5256065;28;20025;-79
2022/03/12 11:15:15;;;;;;;10.65;3.42;;;;;;;18.08;38.40;101508.28;5257088;28;20029;-78
2022/03/12 11:17:49;;;;;;;4.18;2.47;;;;;;;17.97;38.26;101502.50;5255590;28;20033;-78
2022/03/12 11:20:24;;;;;;;6.30;2.97;;;;;;;18.02;37.86;101516.38;5257930;28;20468;-76
2022/03/12 11:23:08;;;;;;;8.30;2.45;;;;;;;18.01;37.69;101512.88;5259827;28;20053;-77
2022/03/12 11:26:15;;;;;;;6.95;2.30;;;;;;;18.66;37.30;101512.47;5258800;28;20028;-80
2022/03/12 11:28:58;;;;;;;8.88;2.58;;;;;;;18.43;37.25;101511.50;5220445;28;20222;-77
2022/03/12 11:31:39;;;;;;;;;;;;;;;18.95;36.28;101508.84;5215804;28;20037;-78
2022/03/12 11:34:22;;;;;;;7.95;2.10;;;;;;;18.28;36.11;101512.88;5215850;28;20269;-79
2022/03/12 11:37:14;;;;;;;8.35;2.13;;;;;;;18.52;37.31;101503.28;5215173;28;20045;-78
2022/03/12 11:39:56;;;;;;;6.63;2.92;;;;;;;18.86;35.86;101512.66;5213659;28;20407;-79
2022/03/12 11:42:33;;;;;;;11.80;2.95;;;;;;;18.89;34.97;101502.00;5213573;28;20061;-77
2022/03/12 11:45:09;;;;;;;5.88;2.60;;;;;;;18.60;34.80;101505.66;5213806;28;20088;-77
2022/03/12 11:47:44;;;;;;;6.60;2.88;;;;;;;18.58;35.12;101503.06;5200147;28;20125;-78
2022/03/12 11:50:19;;;;;;;12.43;2.78;;;;;;;18.86;35.50;101506.53;5217947;28;20500;-78